Bluff Springs, Illinois
Current Conditions -  °F | °C
As of 7:15 AM on Thursday 30 Oct 2014 (Local Time) from KIJX Reporting Station
Broken Clouds Broken Clouds  
Wind Chill: 39°   Ceiling: 10000
Heat Index: 43°   Visibility: 10mi
Dew Point: 37°   Wind: 6mph
Humidity: 81%   Direction: 160°SSE
Pressure: 30.13"   Gusts: NA
Location:  39.99°N, 90.35°W
Report Text: KIJX 301215Z AUTO 16005KT 10SM BKN100 06/03 A3013 RMK AO2 T00600030
Loading
Personal Weather Stations






























Interactive Weather Map
Tropical Storm Tracking
New forecast layout! Learn more

10-Day Weather Forecast

Advertisements
Track Severe Weather on mobile